首页
METAR-TAF:

METAR-TAF

机场 :

Kbely

布拉格, 捷克共和国

纬度: 50-07-17N, 经度: 14-32-37E, 海拔: 286米

当前天气观测

该预报发布于37分钟前的09:00 UTC
风速8节,风向东转东南
温度 9°C
湿度 81%
气压 1011 hPa
能见度10公里或以上
多云层高于1800英尺

METAR: LKKB 220900Z 12008KT 9999 BKN018 09/06 Q1011 NOSIG

时间: 10:37 (09:37 UTC)

预报

该预报发布于4小时和37分钟前的05:00 UTC
预报有效从22日的 06点(UTC)到 23日的 06点(UTC)
风速2节,风向多变
能见度10公里或以上
多云层高于1600英尺
短暂存在
从 22日的 06点(UTC)到 22日的 09点(UTC)
能見度: 5000
多云层高于1000英尺
轻雾
几率 30% :
短暂存在
从 22日的 06点(UTC)到 22日的 09点(UTC)
能見度: 2500
多云层高于500英尺
轻雾
成为
从 22日的 07点(UTC)到 22日的 09点(UTC)
风速4节,风向东南
成为
从 22日的 10点(UTC)到 22日的 12点(UTC)
多云层高于2500英尺
成为
从 22日的 16点(UTC)到 22日的 18点(UTC)
风速10节,风向东转东南

TAF: LKKB 220500Z 2206/2306 VRB02KT 9999 BKN016 TEMPO 2206/2209 5000 BR BKN010 PROB30 TEMPO 2206/2209 2500 BR BKN005 BECMG 2207/2209 14004KT BECMG 2210/2212 BKN025 BECMG 2216/2218 12010KT

超过4000个机场的气象观测和天气预报(METAR&TAF报告)。

可查询的气象台以黄色和红色小点在地图上表示。

将鼠标移到小点上方,可查看气象台名称。

然后点击查看天气观测和预报。

如需切换地图:点击带黑十字的绿色按钮放大地图;点击带横线的绿色按钮缩小地图;或者点击绿色箭头查看邻近地区的地图。


METAR-TAF: